sensor_id;sensor_type;location;lat;lon;timestamp;pressure;altitude;pressure_sealevel;temperature;humidity
13867;BME280;7003;46.982;15.248;2023-01-28T00:01:47;97251.31;;;-2.10;100.00
13867;BME280;7003;46.982;15.248;2023-01-28T00:04:15;97253.75;;;-2.04;100.00
13867;BME280;7003;46.982;15.248;2023-01-28T00:06:43;97251.75;;;-2.18;100.00
13867;BME280;7003;46.982;15.248;2023-01-28T00:09:10;97253.66;;;-2.09;100.00
13867;BME280;7003;46.982;15.248;2023-01-28T00:11:37;97251.31;;;-2.10;100.00
13867;BME280;7003;46.982;15.248;2023-01-28T00:14:09;97247.13;;;-2.11;100.00
13867;BME280;7003;46.982;15.248;2023-01-28T00:16:37;97254.41;;;-2.13;100.00
13867;BME280;7003;46.982;15.248;2023-01-28T00:19:06;97251.63;;;-2.07;100.00
13867;BME280;7003;46.982;15.248;2023-01-28T00:21:33;97252.16;;;-2.05;100.00
13867;BME280;7003;46.982;15.248;2023-01-28T00:24:00;97263.00;;;-2.13;100.00
13867;BME280;7003;46.982;15.248;2023-01-28T00:26:29;97259.56;;;-2.18;100.00
13867;BME280;7003;46.982;15.248;2023-01-28T00:29:00;97259.72;;;-2.25;100.00
13867;BME280;7003;46.982;15.248;2023-01-28T00:31:28;97261.06;;;-2.22;100.00
13867;BME280;7003;46.982;15.248;2023-01-28T00:33:59;97260.59;;;-2.19;100.00
13867;BME280;7003;46.982;15.248;2023-01-28T00:36:28;97260.66;;;-2.31;100.00
13867;BME280;7003;46.982;15.248;2023-01-28T00:38:56;97262.81;;;-2.28;100.00
13867;BME280;7003;46.982;15.248;2023-01-28T00:41:25;97264.94;;;-2.25;100.00
13867;BME280;7003;46.982;15.248;2023-01-28T00:43:57;97263.47;;;-2.16;100.00
13867;BME280;7003;46.982;15.248;2023-01-28T00:46:25;97264.53;;;-2.17;100.00
13867;BME280;7003;46.982;15.248;2023-01-28T00:48:55;97268.69;;;-2.16;100.00
13867;BME280;7003;46.982;15.248;2023-01-28T00:51:22;97272.25;;;-2.22;100.00
13867;BME280;7003;46.982;15.248;2023-01-28T00:53:51;97275.91;;;-2.23;100.00
13867;BME280;7003;46.982;15.248;2023-01-28T00:56:19;97271.09;;;-2.31;100.00
13867;BME280;7003;46.982;15.248;2023-01-28T00:58:47;97276.44;;;-2.21;100.00
13867;BME280;7003;46.982;15.248;2023-01-28T01:01:16;97275.03;;;-2.12;100.00
13867;BME280;7003;46.982;15.248;2023-01-28T01:03:45;97273.44;;;-2.13;100.00
13867;BME280;7003;46.982;15.248;2023-01-28T01:06:15;97278.31;;;-2.16;100.00
13867;BME280;7003;46.982;15.248;2023-01-28T01:08:44;97270.28;;;-2.15;100.00
13867;BME280;7003;46.982;15.248;2023-01-28T01:11:18;97266.88;;;-2.15;100.00
13867;BME280;7003;46.982;15.248;2023-01-28T01:13:49;97270.88;;;-2.08;100.00
13867;BME280;7003;46.982;15.248;2023-01-28T01:16:19;97272.34;;;-2.17;100.00
13867;BME280;7003;46.982;15.248;2023-01-28T01:18:46;97271.84;;;-2.14;100.00
13867;BME280;7003;46.982;15.248;2023-01-28T01:21:15;97277.25;;;-2.20;100.00
13867;BME280;7003;46.982;15.248;2023-01-28T01:23:46;97276.78;;;-2.17;100.00
13867;BME280;7003;46.982;15.248;2023-01-28T01:26:14;97278.09;;;-2.15;100.00
13867;BME280;7003;46.982;15.248;2023-01-28T01:28:42;97280.78;;;-2.10;100.00
13867;BME280;7003;46.982;15.248;2023-01-28T01:31:12;97278.72;;;-2.08;100.00
13867;BME280;7003;46.982;15.248;2023-01-28T01:33:40;97279.25;;;-2.06;100.00
13867;BME280;7003;46.982;15.248;2023-01-28T01:36:09;97280.59;;;-2.03;100.00
13867;BME280;7003;46.982;15.248;2023-01-28T01:38:37;97271.91;;;-2.09;100.00
13867;BME280;7003;46.982;15.248;2023-01-28T01:41:08;97275.16;;;-2.02;100.00
13867;BME280;7003;46.982;15.248;2023-01-28T01:43:49;97272.00;;;-2.04;100.00
13867;BME280;7003;46.982;15.248;2023-01-28T01:46:22;97277.22;;;-2.04;100.00
13867;BME280;7003;46.982;15.248;2023-01-28T01:48:55;97280.84;;;-2.05;100.00
13867;BME280;7003;46.982;15.248;2023-01-28T01:51:29;97277.22;;;-2.04;100.00
13867;BME280;7003;46.982;15.248;2023-01-28T01:54:01;97282.47;;;-1.99;100.00
13867;BME280;7003;46.982;15.248;2023-01-28T01:56:34;97281.44;;;-1.98;100.00
13867;BME280;7003;46.982;15.248;2023-01-28T01:59:09;97283.50;;;-2.00;100.00
13867;BME280;7003;46.982;15.248;2023-01-28T02:01:38;97288.53;;;-1.93;100.00
13867;BME280;7003;46.982;15.248;2023-01-28T02:04:09;97286.66;;;-1.98;100.00
13867;BME280;7003;46.982;15.248;2023-01-28T02:06:40;97288.19;;;-2.02;100.00
13867;BME280;7003;46.982;15.248;2023-01-28T02:09:22;97284.00;;;-2.03;100.00
13867;BME280;7003;46.982;15.248;2023-01-28T02:11:50;97289.22;;;-2.03;100.00
13867;BME280;7003;46.982;15.248;2023-01-28T02:14:22;97286.84;;;-2.04;100.00
13867;BME280;7003;46.982;15.248;2023-01-28T02:16:51;97288.44;;;-2.03;100.00
13867;BME280;7003;46.982;15.248;2023-01-28T02:19:19;97295.69;;;-2.05;100.00
13867;BME280;7003;46.982;15.248;2023-01-28T02:22:00;97294.44;;;-2.03;100.00
13867;BME280;7003;46.982;15.248;2023-01-28T02:24:53;97292.84;;;-2.04;100.00
13867;BME280;7003;46.982;15.248;2023-01-28T02:27:29;97288.81;;;-1.95;100.00
13867;BME280;7003;46.982;15.248;2023-01-28T02:30:03;97300.16;;;-2.01;100.00
13867;BME280;7003;46.982;15.248;2023-01-28T02:32:39;97299.31;;;-2.06;100.00
13867;BME280;7003;46.982;15.248;2023-01-28T02:35:13;97294.16;;;-2.01;100.00
13867;BME280;7003;46.982;15.248;2023-01-28T02:37:46;97289.69;;;-2.06;100.00
13867;BME280;7003;46.982;15.248;2023-01-28T02:40:17;97291.56;;;-2.01;100.00
13867;BME280;7003;46.982;15.248;2023-01-28T02:42:47;97279.81;;;-1.82;100.00
13867;BME280;7003;46.982;15.248;2023-01-28T02:45:22;97272.59;;;-1.97;100.00
13867;BME280;7003;46.982;15.248;2023-01-28T02:47:58;97276.72;;;-2.01;100.00
13867;BME280;7003;46.982;15.248;2023-01-28T02:50:33;97275.22;;;-1.97;100.00
13867;BME280;7003;46.982;15.248;2023-01-28T02:53:14;97268.84;;;-2.06;100.00
13867;BME280;7003;46.982;15.248;2023-01-28T02:56:08;97262.66;;;-2.00;100.00
13867;BME280;7003;46.982;15.248;2023-01-28T02:58:44;97266.78;;;-2.04;100.00
13867;BME280;7003;46.982;15.248;2023-01-28T03:01:19;97262.59;;;-2.05;100.00
13867;BME280;7003;46.982;15.248;2023-01-28T03:03:55;97270.41;;;-2.05;100.00
13867;BME280;7003;46.982;15.248;2023-01-28T03:06:27;97267.88;;;-2.00;100.00
13867;BME280;7003;46.982;15.248;2023-01-28T03:09:02;97268.66;;;-1.99;100.00
13867;BME280;7003;46.982;15.248;2023-01-28T03:11:50;97263.75;;;-1.96;100.00
13867;BME280;7003;46.982;15.248;2023-01-28T03:14:38;97266.59;;;-1.97;100.00
13867;BME280;7003;46.982;15.248;2023-01-28T03:17:31;97277.28;;;-1.99;100.00
13867;BME280;7003;46.982;15.248;2023-01-28T03:20:20;97280.19;;;-1.95;100.00
13867;BME280;7003;46.982;15.248;2023-01-28T03:23:10;97274.19;;;-1.96;100.00
13867;BME280;7003;46.982;15.248;2023-01-28T03:25:58;97277.03;;;-1.97;100.00
13867;BME280;7003;46.982;15.248;2023-01-28T03:28:47;97281.44;;;-1.98;100.00
13867;BME280;7003;46.982;15.248;2023-01-28T03:31:36;97285.88;;;-1.98;100.00
13867;BME280;7003;46.982;15.248;2023-01-28T03:34:23;97278.78;;;-2.03;100.00
13867;BME280;7003;46.982;15.248;2023-01-28T03:37:10;97279.16;;;-1.94;100.00
13867;BME280;7003;46.982;15.248;2023-01-28T03:39:39;97286.84;;;-2.04;100.00
13867;BME280;7003;46.982;15.248;2023-01-28T03:42:09;97287.09;;;-2.06;100.00
13867;BME280;7003;46.982;15.248;2023-01-28T03:44:37;97291.28;;;-2.05;100.00
13867;BME280;7003;46.982;15.248;2023-01-28T03:47:17;97291.63;;;-2.18;100.00
13867;BME280;7003;46.982;15.248;2023-01-28T03:49:47;97294.47;;;-2.19;100.00
13867;BME280;7003;46.982;15.248;2023-01-28T03:52:15;97296.72;;;-2.06;100.00
13867;BME280;7003;46.982;15.248;2023-01-28T03:54:43;97296.34;;;-2.15;100.00
13867;BME280;7003;46.982;15.248;2023-01-28T03:57:14;97290.47;;;-2.05;100.00
13867;BME280;7003;46.982;15.248;2023-01-28T03:59:42;97288.34;;;-2.08;100.00
13867;BME280;7003;46.982;15.248;2023-01-28T04:02:09;97283.53;;;-2.16;100.00
13867;BME280;7003;46.982;15.248;2023-01-28T04:04:40;97288.00;;;-2.17;100.00
13867;BME280;7003;46.982;15.248;2023-01-28T04:07:12;97282.28;;;-2.14;100.00
13867;BME280;7003;46.982;15.248;2023-01-28T04:09:42;97280.22;;;-2.12;100.00
13867;BME280;7003;46.982;15.248;2023-01-28T04:12:10;97288.50;;;-2.15;100.00
13867;BME280;7003;46.982;15.248;2023-01-28T04:14:40;97287.72;;;-2.15;100.00
13867;BME280;7003;46.982;15.248;2023-01-28T04:17:09;97281.25;;;-2.13;100.00
13867;BME280;7003;46.982;15.248;2023-01-28T04:19:37;97278.97;;;-2.09;100.00
13867;BME280;7003;46.982;15.248;2023-01-28T04:22:06;97290.16;;;-2.09;100.00
13867;BME280;7003;46.982;15.248;2023-01-28T04:24:36;97285.22;;;-2.10;100.00
13867;BME280;7003;46.982;15.248;2023-01-28T04:27:04;97284.94;;;-2.09;100.00
13867;BME280;7003;46.982;15.248;2023-01-28T04:29:33;97283.13;;;-2.08;100.00
13867;BME280;7003;46.982;15.248;2023-01-28T04:32:03;97288.91;;;-2.06;100.00
13867;BME280;7003;46.982;15.248;2023-01-28T04:34:30;97280.53;;;-2.08;100.00
13867;BME280;7003;46.982;15.248;2023-01-28T04:36:59;97286.53;;;-2.08;100.00
13867;BME280;7003;46.982;15.248;2023-01-28T04:39:26;97290.16;;;-2.09;100.00
13867;BME280;7003;46.982;15.248;2023-01-28T04:41:57;97305.78;;;-2.09;100.00
13867;BME280;7003;46.982;15.248;2023-01-28T04:44:24;97301.75;;;-2.00;100.00
13867;BME280;7003;46.982;15.248;2023-01-28T04:46:51;97310.84;;;-2.02;100.00
13867;BME280;7003;46.982;15.248;2023-01-28T04:49:19;97312.41;;;-2.01;100.00
13867;BME280;7003;46.982;15.248;2023-01-28T04:51:46;97313.19;;;-2.01;100.00
13867;BME280;7003;46.982;15.248;2023-01-28T04:54:15;97312.41;;;-2.01;100.00
13867;BME280;7003;46.982;15.248;2023-01-28T04:56:43;97314.78;;;-2.00;100.00
13867;BME280;7003;46.982;15.248;2023-01-28T04:59:12;97317.38;;;-2.00;100.00
13867;BME280;7003;46.982;15.248;2023-01-28T05:01:39;97318.75;;;-1.97;100.00
13867;BME280;7003;46.982;15.248;2023-01-28T05:04:06;97324.91;;;-2.03;100.00
13867;BME280;7003;46.982;15.248;2023-01-28T05:06:34;97318.19;;;-1.99;100.00
13867;BME280;7003;46.982;15.248;2023-01-28T05:09:01;97334.56;;;-2.04;100.00
13867;BME280;7003;46.982;15.248;2023-01-28T05:11:29;97340.56;;;-2.03;100.00
13867;BME280;7003;46.982;15.248;2023-01-28T05:13:56;97339.53;;;-2.02;100.00
13867;BME280;7003;46.982;15.248;2023-01-28T05:16:26;97338.47;;;-2.01;100.00
13867;BME280;7003;46.982;15.248;2023-01-28T05:18:53;97335.78;;;-1.89;100.00
13867;BME280;7003;46.982;15.248;2023-01-28T05:21:23;97337.38;;;-1.88;100.00
13867;BME280;7003;46.982;15.248;2023-01-28T05:23:50;97340.06;;;-2.00;100.00
13867;BME280;7003;46.982;15.248;2023-01-28T05:26:17;97344.19;;;-2.04;100.00
13867;BME280;7003;46.982;15.248;2023-01-28T05:28:47;97340.16;;;-1.95;100.00
13867;BME280;7003;46.982;15.248;2023-01-28T05:31:16;97343.44;;;-1.83;100.00
13867;BME280;7003;46.982;15.248;2023-01-28T05:33:47;97350.31;;;-1.94;100.00
13867;BME280;7003;46.982;15.248;2023-01-28T05:36:14;97351.84;;;-1.98;100.00
13867;BME280;7003;46.982;15.248;2023-01-28T05:38:43;97354.22;;;-1.96;100.00
13867;BME280;7003;46.982;15.248;2023-01-28T05:41:10;97351.44;;;-1.89;100.00
13867;BME280;7003;46.982;15.248;2023-01-28T05:43:40;97357.06;;;-1.98;100.00
13867;BME280;7003;46.982;15.248;2023-01-28T05:46:08;97362.78;;;-1.79;100.00
13867;BME280;7003;46.982;15.248;2023-01-28T05:48:35;97363.72;;;-1.85;100.00
13867;BME280;7003;46.982;15.248;2023-01-28T05:51:04;97360.69;;;-1.99;100.00
13867;BME280;7003;46.982;15.248;2023-01-28T05:53:32;97364.88;;;-1.98;100.00
13867;BME280;7003;46.982;15.248;2023-01-28T05:56:01;97373.25;;;-1.96;100.00
13867;BME280;7003;46.982;15.248;2023-01-28T05:58:28;97371.66;;;-1.97;100.00
13867;BME280;7003;46.982;15.248;2023-01-28T06:01:00;97382.38;;;-1.93;100.00
13867;BME280;7003;46.982;15.248;2023-01-28T06:03:32;97379.50;;;-1.97;100.00
13867;BME280;7003;46.982;15.248;2023-01-28T06:05:59;97382.38;;;-1.93;100.00
13867;BME280;7003;46.982;15.248;2023-01-28T06:08:28;97383.03;;;-1.86;100.00
13867;BME280;7003;46.982;15.248;2023-01-28T06:10:55;97390.47;;;-1.95;100.00
13867;BME280;7003;46.982;15.248;2023-01-28T06:13:32;97392.81;;;-1.93;100.00
13867;BME280;7003;46.982;15.248;2023-01-28T06:15:59;97397.78;;;-1.91;100.00
13867;BME280;7003;46.982;15.248;2023-01-28T06:18:27;97393.28;;;-1.79;100.00
13867;BME280;7003;46.982;15.248;2023-01-28T06:20:57;97393.28;;;-1.79;100.00
13867;BME280;7003;46.982;15.248;2023-01-28T06:23:28;97398.00;;;-1.76;100.00
13867;BME280;7003;46.982;15.248;2023-01-28T06:25:59;97399.22;;;-1.84;100.00
13867;BME280;7003;46.982;15.248;2023-01-28T06:28:26;97404.53;;;-2.12;100.00
13867;BME280;7003;46.982;15.248;2023-01-28T06:30:54;97407.22;;;-2.07;100.00
13867;BME280;7003;46.982;15.248;2023-01-28T06:33:24;97410.69;;;-2.02;100.00
13867;BME280;7003;46.982;15.248;2023-01-28T06:35:57;97413.31;;;-2.02;100.00
13867;BME280;7003;46.982;15.248;2023-01-28T06:38:25;97413.59;;;-2.15;100.00
13867;BME280;7003;46.982;15.248;2023-01-28T06:40:54;97413.69;;;-2.10;100.00
13867;BME280;7003;46.982;15.248;2023-01-28T06:43:23;97413.84;;;-2.00;100.00
13867;BME280;7003;46.982;15.248;2023-01-28T06:45:56;97417.63;;;-2.07;100.00
13867;BME280;7003;46.982;15.248;2023-01-28T06:48:27;97427.19;;;-1.96;100.00
13867;BME280;7003;46.982;15.248;2023-01-28T06:50:55;97433.09;;;-2.01;100.00
13867;BME280;7003;46.982;15.248;2023-01-28T06:53:23;97442.91;;;-1.91;100.00
13867;BME280;7003;46.982;15.248;2023-01-28T06:55:51;97436.44;;;-2.05;100.00
13867;BME280;7003;46.982;15.248;2023-01-28T06:58:23;97442.06;;;-1.97;100.00
13867;BME280;7003;46.982;15.248;2023-01-28T07:00:52;97447.66;;;-1.88;100.00
13867;BME280;7003;46.982;15.248;2023-01-28T07:03:24;97442.44;;;-2.05;100.00
13867;BME280;7003;46.982;15.248;2023-01-28T07:05:52;97452.78;;;-2.10;100.00
13867;BME280;7003;46.982;15.248;2023-01-28T07:08:20;97453.34;;;-2.08;100.00
13867;BME280;7003;46.982;15.248;2023-01-28T07:10:49;97448.75;;;-2.01;100.00
13867;BME280;7003;46.982;15.248;2023-01-28T07:13:19;97455.16;;;-1.91;100.00
13867;BME280;7003;46.982;15.248;2023-01-28T07:15:50;97452.25;;;-1.95;100.00
13867;BME280;7003;46.982;15.248;2023-01-28T07:18:21;97458.72;;;-1.98;100.00
13867;BME280;7003;46.982;15.248;2023-01-28T07:20:52;97455.66;;;-1.95;100.00
13867;BME280;7003;46.982;15.248;2023-01-28T07:23:20;97454.13;;;-1.90;100.00
13867;BME280;7003;46.982;15.248;2023-01-28T07:25:49;97452.88;;;-1.88;100.00
13867;BME280;7003;46.982;15.248;2023-01-28T07:28:20;97451.53;;;-1.90;100.00
13867;BME280;7003;46.982;15.248;2023-01-28T07:30:50;97454.47;;;-1.87;100.00
13867;BME280;7003;46.982;15.248;2023-01-28T07:33:21;97456.34;;;-1.82;100.00
13867;BME280;7003;46.982;15.248;2023-01-28T07:35:51;97456.41;;;-1.77;100.00
13867;BME280;7003;46.982;15.248;2023-01-28T07:38:20;97456.28;;;-1.71;100.00
13867;BME280;7003;46.982;15.248;2023-01-28T07:40:48;97465.75;;;-1.65;100.00
13867;BME280;7003;46.982;15.248;2023-01-28T07:43:18;97459.25;;;-1.62;100.00
13867;BME280;7003;46.982;15.248;2023-01-28T07:45:46;97470.06;;;-1.53;100.00
13867;BME280;7003;46.982;15.248;2023-01-28T07:48:15;97469.41;;;-1.44;100.00
13867;BME280;7003;46.982;15.248;2023-01-28T07:50:43;97477.47;;;-1.45;100.00
13867;BME280;7003;46.982;15.248;2023-01-28T07:53:13;97473.44;;;-1.36;100.00
13867;BME280;7003;46.982;15.248;2023-01-28T07:55:41;97471.63;;;-1.36;100.00
13867;BME280;7003;46.982;15.248;2023-01-28T07:58:10;97475.56;;;-1.33;100.00
13867;BME280;7003;46.982;15.248;2023-01-28T08:00:38;97476.97;;;-1.26;100.00
13867;BME280;7003;46.982;15.248;2023-01-28T08:03:09;97473.34;;;-1.25;100.00
13867;BME280;7003;46.982;15.248;2023-01-28T08:05:45;97484.94;;;-1.16;100.00
13867;BME280;7003;46.982;15.248;2023-01-28T08:08:16;97477.28;;;-1.00;100.00
13867;BME280;7003;46.982;15.248;2023-01-28T08:10:44;97480.34;;;-0.87;100.00
13867;BME280;7003;46.982;15.248;2023-01-28T08:13:15;97480.72;;;-0.78;100.00
13867;BME280;7003;46.982;15.248;2023-01-28T08:15:46;97475.53;;;-0.73;100.00
13867;BME280;7003;46.982;15.248;2023-01-28T08:18:16;97482.94;;;-0.65;100.00
13867;BME280;7003;46.982;15.248;2023-01-28T08:20:45;97484.13;;;-0.51;100.00
13867;BME280;7003;46.982;15.248;2023-01-28T08:23:17;97489.56;;;-0.30;100.00
13867;BME280;7003;46.982;15.248;2023-01-28T08:25:45;97488.88;;;-0.21;100.00
13867;BME280;7003;46.982;15.248;2023-01-28T08:28:14;97483.19;;;-0.13;100.00
13867;BME280;7003;46.982;15.248;2023-01-28T08:30:43;97495.97;;;0.11;100.00
13867;BME280;7003;46.982;15.248;2023-01-28T08:33:13;97490.03;;;0.20;100.00
13867;BME280;7003;46.982;15.248;2023-01-28T08:35:41;97495.84;;;0.32;100.00
13867;BME280;7003;46.982;15.248;2023-01-28T08:38:13;97505.81;;;0.30;100.00
13867;BME280;7003;46.982;15.248;2023-01-28T08:40:42;97495.84;;;0.32;100.00
13867;BME280;7003;46.982;15.248;2023-01-28T08:43:10;97499.50;;;0.31;100.00
13867;BME280;7003;46.982;15.248;2023-01-28T08:45:38;97511.28;;;0.29;100.00
13867;BME280;7003;46.982;15.248;2023-01-28T08:48:11;97510.03;;;0.36;100.00
13867;BME280;7003;46.982;15.248;2023-01-28T08:50:46;97508.09;;;0.59;100.00
13867;BME280;7003;46.982;15.248;2023-01-28T08:53:19;97510.69;;;0.54;100.00
13867;BME280;7003;46.982;15.248;2023-01-28T08:55:47;97514.56;;;0.46;100.00
13867;BME280;7003;46.982;15.248;2023-01-28T08:58:16;97521.66;;;0.19;100.00
13867;BME280;7003;46.982;15.248;2023-01-28T09:00:44;97522.78;;;0.28;100.00
13867;BME280;7003;46.982;15.248;2023-01-28T09:03:12;97524.00;;;0.15;100.00
13867;BME280;7003;46.982;15.248;2023-01-28T09:05:40;97524.97;;;0.09;100.00
13867;BME280;7003;46.982;15.248;2023-01-28T09:08:10;97524.84;;;0.26;100.00
13867;BME280;7003;46.982;15.248;2023-01-28T09:10:39;97536.00;;;0.16;100.00
13867;BME280;7003;46.982;15.248;2023-01-28T09:13:09;97528.72;;;0.18;100.00
13867;BME280;7003;46.982;15.248;2023-01-28T09:15:39;97532.16;;;0.24;100.00
13867;BME280;7003;46.982;15.248;2023-01-28T09:18:07;97541.56;;;0.20;100.00
13867;BME280;7003;46.982;15.248;2023-01-28T09:20:36;97543.13;;;-0.06;100.00
13867;BME280;7003;46.982;15.248;2023-01-28T09:23:04;97544.81;;;-0.22;100.00
13867;BME280;7003;46.982;15.248;2023-01-28T09:25:31;97544.72;;;-0.32;100.00
13867;BME280;7003;46.982;15.248;2023-01-28T09:28:03;97544.97;;;-0.33;100.00
13867;BME280;7003;46.982;15.248;2023-01-28T09:30:31;97552.19;;;-0.41;100.00
13867;BME280;7003;46.982;15.248;2023-01-28T09:33:02;97552.56;;;-0.54;100.00
13867;BME280;7003;46.982;15.248;2023-01-28T09:35:30;97551.69;;;-0.38;100.00
13867;BME280;7003;46.982;15.248;2023-01-28T09:37:58;97560.41;;;-0.32;100.00
13867;BME280;7003;46.982;15.248;2023-01-28T09:40:32;97551.53;;;-0.53;100.00
13867;BME280;7003;46.982;15.248;2023-01-28T09:43:21;97554.03;;;-0.41;100.00
13867;BME280;7003;46.982;15.248;2023-01-28T09:45:55;97561.44;;;-0.33;100.00
13867;BME280;7003;46.982;15.248;2023-01-28T09:48:27;97563.84;;;-0.26;100.00
13867;BME280;7003;46.982;15.248;2023-01-28T09:50:57;97560.81;;;-0.62;100.00
13867;BME280;7003;46.982;15.248;2023-01-28T09:53:29;97559.25;;;-0.41;100.00
13867;BME280;7003;46.982;15.248;2023-01-28T09:56:01;97562.53;;;-0.51;100.00
13867;BME280;7003;46.982;15.248;2023-01-28T09:58:31;97563.78;;;-0.53;100.00
13867;BME280;7003;46.982;15.248;2023-01-28T10:01:02;97559.13;;;-0.73;100.00
13867;BME280;7003;46.982;15.248;2023-01-28T10:03:38;97555.34;;;-0.82;100.00
13867;BME280;7003;46.982;15.248;2023-01-28T10:06:19;97554.75;;;-0.67;100.00
13867;BME280;7003;46.982;15.248;2023-01-28T10:09:22;97557.78;;;-0.54;100.00
13867;BME280;7003;46.982;15.248;2023-01-28T10:12:09;97564.75;;;-0.38;100.00
13867;BME280;7003;46.982;15.248;2023-01-28T10:15:00;97563.63;;;-0.25;100.00
13867;BME280;7003;46.982;15.248;2023-01-28T10:17:41;97551.13;;;-0.18;100.00
13867;BME280;7003;46.982;15.248;2023-01-28T10:20:19;97553.16;;;0.02;100.00
13867;BME280;7003;46.982;15.248;2023-01-28T10:22:57;97552.22;;;0.13;100.00
13867;BME280;7003;46.982;15.248;2023-01-28T10:25:33;97551.50;;;-0.09;100.00
13867;BME280;7003;46.982;15.248;2023-01-28T10:28:18;97547.56;;;-0.07;100.00
13867;BME280;7003;46.982;15.248;2023-01-28T10:30:52;97556.63;;;0.08;100.00
13867;BME280;7003;46.982;15.248;2023-01-28T10:33:35;97557.69;;;-0.15;100.00
13867;BME280;7003;46.982;15.248;2023-01-28T10:36:09;97553.72;;;-0.45;100.00
13867;BME280;7003;46.982;15.248;2023-01-28T10:38:41;97549.94;;;-0.32;100.00
13867;BME280;7003;46.982;15.248;2023-01-28T10:41:19;97551.16;;;-0.40;100.00
13867;BME280;7003;46.982;15.248;2023-01-28T10:43:51;97551.69;;;-0.38;100.00
13867;BME280;7003;46.982;15.248;2023-01-28T10:46:29;97558.41;;;-0.47;100.00
13867;BME280;7003;46.982;15.248;2023-01-28T10:49:10;97547.84;;;-0.30;100.00
13867;BME280;7003;46.982;15.248;2023-01-28T10:51:44;97543.06;;;-0.38;100.00
13867;BME280;7003;46.982;15.248;2023-01-28T10:54:20;97542.22;;;-0.44;100.00
13867;BME280;7003;46.982;15.248;2023-01-28T10:56:56;97553.69;;;-0.23;100.00
13867;BME280;7003;46.982;15.248;2023-01-28T10:59:30;97546.84;;;-0.51;100.00
13867;BME280;7003;46.982;15.248;2023-01-28T11:02:05;97539.38;;;-0.42;100.00
13867;BME280;7003;46.982;15.248;2023-01-28T11:05:01;97543.66;;;-0.31;100.00
13867;BME280;7003;46.982;15.248;2023-01-28T11:07:36;97541.75;;;-0.41;100.00
13867;BME280;7003;46.982;15.248;2023-01-28T11:10:28;97537.56;;;-0.42;100.00
13867;BME280;7003;46.982;15.248;2023-01-28T11:13:04;97541.47;;;-0.17;100.00
13867;BME280;7003;46.982;15.248;2023-01-28T11:15:35;97536.84;;;-0.10;100.00
13867;BME280;7003;46.982;15.248;2023-01-28T11:18:18;97537.97;;;-0.01;100.00
13867;BME280;7003;46.982;15.248;2023-01-28T11:20:53;97539.00;;;-0.02;100.00
13867;BME280;7003;46.982;15.248;2023-01-28T11:23:28;97541.38;;;-0.01;100.00
13867;BME280;7003;46.982;15.248;2023-01-28T11:26:04;97538.84;;;0.10;100.00
13867;BME280;7003;46.982;15.248;2023-01-28T11:28:40;97532.78;;;0.04;100.00
13867;BME280;7003;46.982;15.248;2023-01-28T11:31:18;97532.75;;;-0.01;100.00
13867;BME280;7003;46.982;15.248;2023-01-28T11:33:57;97533.13;;;-0.14;100.00
13867;BME280;7003;46.982;15.248;2023-01-28T11:36:32;97529.00;;;-0.10;100.00
13867;BME280;7003;46.982;15.248;2023-01-28T11:39:17;97520.94;;;-0.04;100.00
13867;BME280;7003;46.982;15.248;2023-01-28T11:41:51;97530.59;;;-0.04;100.00
13867;BME280;7003;46.982;15.248;2023-01-28T11:44:25;97517.78;;;-0.06;100.00
13867;BME280;7003;46.982;15.248;2023-01-28T11:47:19;97512.06;;;-0.03;100.00
13867;BME280;7003;46.982;15.248;2023-01-28T11:50:17;97506.25;;;-0.10;100.00
13867;BME280;7003;46.982;15.248;2023-01-28T11:53:01;97508.31;;;-0.12;100.00
13867;BME280;7003;46.982;15.248;2023-01-28T11:55:44;97511.84;;;0.04;100.00
13867;BME280;7003;46.982;15.248;2023-01-28T11:58:22;97512.53;;;0.21;100.00
13867;BME280;7003;46.982;15.248;2023-01-28T12:01:01;97507.13;;;0.33;100.00
13867;BME280;7003;46.982;15.248;2023-01-28T12:03:43;97501.72;;;0.45;100.00
13867;BME280;7003;46.982;15.248;2023-01-28T12:06:41;97499.69;;;0.52;100.00
13867;BME280;7003;46.982;15.248;2023-01-28T12:09:16;97501.25;;;0.53;100.00
13867;BME280;7003;46.982;15.248;2023-01-28T12:12:07;97499.16;;;0.55;100.00
13867;BME280;7003;46.982;15.248;2023-01-28T12:17:46;97501.22;;;0.48;100.00
13867;BME280;7003;46.982;15.248;2023-01-28T12:20:30;97491.81;;;0.52;100.00
13867;BME280;7003;46.982;15.248;2023-01-28T12:23:18;97496.53;;;0.55;100.00
13867;BME280;7003;46.982;15.248;2023-01-28T12:26:05;97500.50;;;0.62;100.00
13867;BME280;7003;46.982;15.248;2023-01-28T12:28:51;97496.91;;;0.68;100.00
13867;BME280;7003;46.982;15.248;2023-01-28T12:37:57;97500.13;;;0.81;100.00
13867;BME280;7003;46.982;15.248;2023-01-28T12:40:43;97491.75;;;0.84;100.00
13867;BME280;7003;46.982;15.248;2023-01-28T12:43:19;97497.25;;;0.87;100.00
13867;BME280;7003;46.982;15.248;2023-01-28T12:45:54;97492.31;;;0.91;100.00
13867;BME280;7003;46.982;15.248;2023-01-28T12:48:33;97492.06;;;0.92;100.00
13867;BME280;7003;46.982;15.248;2023-01-28T12:51:09;97495.69;;;0.86;100.00
13867;BME280;7003;46.982;15.248;2023-01-28T12:53:46;97492.59;;;0.94;100.00
13867;BME280;7003;46.982;15.248;2023-01-28T12:56:21;97501.47;;;0.88;100.00
13867;BME280;7003;46.982;15.248;2023-01-28T12:58:56;97499.88;;;0.82;100.00
13867;BME280;7003;46.982;15.248;2023-01-28T13:01:33;97510.31;;;0.77;100.00
13867;BME280;7003;46.982;15.248;2023-01-28T13:04:09;97504.84;;;0.84;100.00
13867;BME280;7003;46.982;15.248;2023-01-28T13:06:47;97503.06;;;0.94;100.00
13867;BME280;7003;46.982;15.248;2023-01-28T13:09:21;97504.09;;;0.93;100.00
13867;BME280;7003;46.982;15.248;2023-01-28T13:11:58;97502.25;;;0.84;100.00
13867;BME280;7003;46.982;15.248;2023-01-28T13:14:30;97504.56;;;0.80;100.00
13867;BME280;7003;46.982;15.248;2023-01-28T13:17:10;97504.28;;;0.76;100.00
13867;BME280;7003;46.982;15.248;2023-01-28T13:19:43;97500.34;;;0.79;100.00
13867;BME280;7003;46.982;15.248;2023-01-28T13:22:28;97507.19;;;0.80;100.00
13867;BME280;7003;46.982;15.248;2023-01-28T13:25:17;97496.13;;;0.68;100.00
13867;BME280;7003;46.982;15.248;2023-01-28T13:27:59;97500.28;;;0.64;100.00
13867;BME280;7003;46.982;15.248;2023-01-28T13:30:34;97516.63;;;0.81;100.00
13867;BME280;7003;46.982;15.248;2023-01-28T13:33:06;97506.63;;;0.78;100.00